Main page
METAR-TAF:

METAR-TAF

Airports :

Moscow-Sheremetyevo, Russia

Sheremetyevo International Airport

latitude: 55-59N, longitude: 037-30E, elevation: 190 m

Current weather observation

The report was made 44 minutes ago, at 18:30 UTC
Wind 8 kt from the North/Northwest
Temperature -1°C
Humidity 86%
Pressure 1018 hPa
Visibility 10 km or more
Broken clouds at a height of 5300 ft, Cumulonimbus.
light snow showers

METAR: UUEE 211830Z 33004MPS 9999 -SHSN BKN053CB M01/M03 Q1018 R24R/CLRD62 R24L/CLRD62 NOSIG

Time: 22:14 (19:14 UTC)

Forecast

The report was made 2 hours and 14 minutes ago, at 17:00 UTC
Forecast valid from 21 at 18 UTC to 22 at 18 UTC
Wind 8 kt from the Northwest
Visibility 10 km or more
Broken clouds at a height of 1100 ft

TAF: UUEE 211700Z 2118/2218 31004MPS 9999 BKN011 TX02/2212Z TNM03/2203Z

Weather observations and forecasts of more than 4000 airports (METAR and TAF reports).

The available stations are represented by yellow and red dots on the map.

Hover mouse over dot to see the name of the station.

Then click to see weather observations and forecasts.

To change the map : click on the green buttons with a black cross to zoom in, on the green button with a dash to zoom out, or on the green arrows for adjacent maps.


METAR-TAF: